首页
METAR-TAF:

METAR-TAF

机场 :

图勒空军基地

图勒, 格陵兰

纬度: 76-32N, 经度: 068-42W, 海拔: 77米

当前天气观测

该预报发布于40分钟前的12:56 UTC
风速6节,风向
温度 -26°C
湿度 76%
气压 996 hPa
能见度10公里或以上
天空无云

METAR: BGTL 171256Z AUTO 10006KT 9999 CLR M26/M29 A2942 RMK AO2 SLP956 T12571291 TSNO $

时间: 09:36 (13:36 UTC)

预报

该预报发布于19分钟前的13:17 UTC
预报有效从17日的 13点(UTC)到 18日的 16点(UTC)
风速6节,风向多变
能见度10公里或以上
少量云层高于6000英尺
散云层高于12000英尺
多云层高于18000英尺
成为
从 18日的 03点(UTC)到 18日的 04点(UTC)
风速12节,风向东南,在之间变化
能見度: 6000
散云层高于800英尺
多云层高于1500英尺
阴天层高于5000英尺
小雪
成为
从 18日的 07点(UTC)到 18日的 08点(UTC)
风速20节,风向东南,有时为40节阵风,在之间变化
能見度: 1600
散云层高于500英尺
阴天层高于1500英尺
小雪, 高吹雪
成为
从 18日的 13点(UTC)到 18日的 14点(UTC)
风速15节,风向东南,有时为30节阵风,在之间变化
能見度: 1810
散云层高于2500英尺
多云层高于4500英尺
高吹雪

TAF: BGTL 171317Z 1713/1816 VRB06KT 9999 FEW060 SCT120 BKN180 QNH2924INS BECMG 1803/1804 13012KT 6000 -SN SCT008 BKN015 OVC050 620158 QNH2923INS WND 080V170 BECMG 1807/1808 14020G40KT 1600 -SN BLSN SCT005 OVC015 620158 520002 550204 QNH2938INS WND 090V170 BECMG 1813/1814 14015G30KT 3200 BLSN SCT025 BKN045 620456 530004 540405 QNH2963INS WND 090V170 TXM14/1809Z TNM26/1714Z LAST NO AMDS AFT 1713 NEXT 1810

超过4000个机场的气象观测和天气预报(METAR&TAF报告)。

可查询的气象台以黄色和红色小点在地图上表示。

将鼠标移到小点上方,可查看气象台名称。

然后点击查看天气观测和预报。

如需切换地图:点击带黑十字的绿色按钮放大地图;点击带横线的绿色按钮缩小地图;或者点击绿色箭头查看邻近地区的地图。


METAR-TAF: